Terminal Aerodrome Forecast
Issued by NWS

Current Version | Previous Version | Text Only | Print | Product List | Glossary Off
Versions: 1 2 3 4 5 6 7 8 9 10 11 12 13 14 15 16 17 18 19 20 21 22 23 24 25 26 27 28 29 30 31

730
FTUS41 KRLX 270901 AAA
TAFCKB
TAF AMD
KCKB 270901Z 2709/2806 17004KT P6SM SKC
     FM271600 19009G17KT P6SM SCT250
     FM271800 21009G17KT P6SM BKN060
     FM271900 21009G19KT P6SM SHRA BKN060
     FM272100 20010G20KT 3SM SHRA VCTS OVC050CB
     FM272300 22008KT P6SM BKN040
     FM280300 26006KT P6SM BKN050=

USA.gov is the U.S. government's official web portal to all federal, state and local government web resources and services.